Time;durP1;ratioP1;P1;durP2;ratioP2;P2;SDS_P1;SDS_P2;PMS_P1;PMS_P2;Temp;Humidity;BMP_temperature;BMP_pressure;BME280_temperature;BME280_humidity;BME280_pressure;Samples;Min_cycle;Max_cycle;Signal;HPM_P1;HPM_P2
2021/07/09 00:01:14;;;;;;;9.68;7.10;;;;;;;23.39;58.93;95468.84;4940964;23;20543;-82
2021/07/09 00:03:41;;;;;;;12.85;7.15;;;;;;;23.38;58.57;95477.91;4929385;29;20578;-82
2021/07/09 00:06:06;;;;;;;7.50;6.80;;;;;;;23.37;58.76;95471.81;4913960;29;20059;-81
2021/07/09 00:08:32;;;;;;;8.10;5.82;;;;;;;23.33;59.18;95490.19;4930833;29;20040;-81
2021/07/09 00:10:57;;;;;;;14.68;6.30;;;;;;;23.25;59.38;95485.56;4936641;23;20113;-82
2021/07/09 00:13:23;;;;;;;11.00;6.90;;;;;;;23.19;59.36;95476.13;4946411;29;20488;-82
2021/07/09 00:15:48;;;;;;;12.95;6.53;;;;;;;23.13;59.61;95481.84;4948661;29;20047;-82
2021/07/09 00:18:14;;;;;;;11.32;6.45;;;;;;;22.99;60.19;95479.19;4927169;29;20032;-82
2021/07/09 00:20:39;;;;;;;18.67;7.47;;;;;;;22.92;60.20;95476.13;4929803;29;20043;-82
2021/07/09 00:23:08;;;;;;;13.80;6.95;;;;;;;22.87;60.89;95481.53;4927482;29;20038;-82
2021/07/09 00:28:08;;;;;;;13.88;6.97;;;;;;;22.69;61.30;95481.28;4982653;23;20427;-82
2021/07/09 00:30:34;;;;;;;8.90;7.03;;;;;;;22.56;62.07;95479.38;4988761;23;20041;-81
2021/07/09 00:32:59;;;;;;;12.93;7.57;;;;;;;22.33;62.86;95469.69;4953100;29;20087;-81
2021/07/09 00:35:24;;;;;;;9.52;7.88;;;;;;;22.14;63.63;95473.16;4954601;29;20046;-83
2021/07/09 00:37:50;;;;;;;15.57;7.82;;;;;;;22.07;63.23;95467.44;4935548;29;20120;-81
2021/07/09 00:40:21;;;;;;;17.35;7.80;;;;;;;22.10;62.77;95466.06;4936085;29;20032;-81
2021/07/09 00:42:47;;;;;;;12.68;7.32;;;;;;;22.15;62.38;95458.06;4934810;29;20087;-81
2021/07/09 00:45:13;;;;;;;7.40;6.70;;;;;;;22.17;62.29;95453.25;4935639;29;20036;-82
2021/07/09 00:47:45;;;;;;;8.63;7.03;;;;;;;22.17;62.08;95456.69;4935526;29;20040;-82
2021/07/09 00:50:11;;;;;;;14.00;7.20;;;;;;;22.21;61.89;95456.09;4904012;29;20118;-82
2021/07/09 00:52:36;;;;;;;10.15;7.13;;;;;;;22.28;62.12;95456.50;4903316;29;20542;-83
2021/07/09 00:55:03;;;;;;;11.93;7.35;;;;;;;22.31;62.32;95461.25;4935725;29;20146;-83
2021/07/09 00:57:28;;;;;;;21.48;7.25;;;;;;;22.28;62.56;95456.50;4920072;29;20064;-83
2021/07/09 00:59:54;;;;;;;14.02;6.90;;;;;;;22.25;62.30;95457.88;4936780;29;20036;-83
2021/07/09 01:02:19;;;;;;;7.32;6.45;;;;;;;22.20;61.65;95451.88;4999881;23;20066;-82
2021/07/09 01:04:45;;;;;;;10.02;6.00;;;;;;;22.20;61.10;95454.53;4974661;28;20031;-82
2021/07/09 01:07:10;;;;;;;7.68;6.05;;;;;;;22.19;61.11;95452.97;4964683;28;20432;-83
2021/07/09 01:09:36;;;;;;;11.95;6.78;;;;;;;22.19;61.03;95450.31;4914575;28;20027;-83
2021/07/09 01:12:02;;;;;;;7.15;6.50;;;;;;;22.14;61.44;95454.63;4915136;28;20046;-83
2021/07/09 01:14:27;;;;;;;8.48;6.88;;;;;;;22.16;61.38;95449.81;4948684;28;20042;-83
2021/07/09 01:16:52;;;;;;;13.77;7.15;;;;;;;22.12;61.64;95451.44;4947851;28;20093;-83
2021/07/09 01:19:18;;;;;;;8.80;6.85;;;;;;;22.16;61.37;95454.31;4947978;28;20384;-83
2021/07/09 01:21:44;;;;;;;9.63;6.50;;;;;;;22.14;61.79;95459.91;4950096;28;20121;-82
2021/07/09 01:24:10;;;;;;;8.98;6.57;;;;;;;22.06;61.64;95465.84;4950682;28;20603;-82
2021/07/09 01:26:37;;;;;;;20.10;6.90;;;;;;;21.79;62.58;95465.69;4946433;28;20066;-83
2021/07/09 01:29:05;;;;;;;18.27;7.03;;;;;;;21.53;63.39;95460.75;4947956;28;20057;-83
2021/07/09 01:31:31;;;;;;;14.98;7.43;;;;;;;21.36;64.09;95451.72;4949638;28;20035;-82
2021/07/09 01:33:56;;;;;;;12.45;7.22;;;;;;;21.34;64.06;95461.81;4947163;28;21102;-81
2021/07/09 01:36:22;;;;;;;6.80;6.07;;;;;;;21.36;63.93;95463.09;4969161;28;20032;-83
2021/07/09 01:38:48;;;;;;;7.32;5.93;;;;;;;21.36;63.79;95457.00;4962886;28;20034;-82
2021/07/09 01:41:14;;;;;;;6.78;6.15;;;;;;;21.37;63.72;95469.94;4948574;28;20149;-83
2021/07/09 01:43:43;;;;;;;9.65;5.95;;;;;;;21.35;63.80;95472.09;4953717;28;20068;-83
2021/07/09 01:48:44;;;;;;;10.95;6.68;;;;;;;21.45;63.32;95471.16;4961398;28;20051;-83
2021/07/09 01:51:38;;;;;;;10.35;5.90;;;;;;;21.53;63.31;95468.69;4945654;29;20043;-84
2021/07/09 01:54:06;;;;;;;11.23;6.15;;;;;;;21.61;62.60;95479.69;4959478;28;20043;-84
2021/07/09 01:56:31;;;;;;;8.63;6.18;;;;;;;21.60;62.58;95475.47;4942231;29;20031;-82
2021/07/09 01:58:57;;;;;;;14.85;6.22;;;;;;;21.54;62.76;95470.25;4941784;29;20384;-82
2021/07/09 02:01:22;;;;;;;8.90;6.28;;;;;;;21.52;62.59;95466.34;4940657;29;20512;-82
2021/07/09 02:03:48;;;;;;;7.45;6.35;;;;;;;21.55;62.52;95471.84;4925768;29;20035;-82
2021/07/09 02:06:13;;;;;;;9.48;5.80;;;;;;;21.55;62.75;95471.06;4958020;29;20035;-82
2021/07/09 02:08:39;;;;;;;6.78;6.10;;;;;;;21.52;62.89;95477.69;4925450;29;20042;-82
2021/07/09 02:11:04;;;;;;;6.78;6.07;;;;;;;21.56;62.69;95473.41;4958057;29;20062;-82
2021/07/09 02:13:30;;;;;;;8.52;5.93;;;;;;;21.60;62.93;95478.13;4940872;29;20054;-83
2021/07/09 02:15:55;;;;;;;8.82;6.25;;;;;;;21.62;62.92;95481.28;4907131;29;20042;-82
2021/07/09 02:18:20;;;;;;;9.40;6.03;;;;;;;21.69;62.48;95485.16;4941050;29;20039;-82
2021/07/09 02:20:46;;;;;;;8.82;6.18;;;;;;;21.72;62.50;95481.94;5001725;23;20229;-82
2021/07/09 02:23:14;;;;;;;6.30;5.70;;;;;;;21.73;62.71;95480.88;4996779;28;20045;-83
2021/07/09 02:25:39;;;;;;;9.05;5.95;;;;;;;21.69;62.76;95465.84;4947076;28;20540;-83
2021/07/09 02:28:05;;;;;;;10.88;5.70;;;;;;;21.69;63.11;95476.44;4979558;28;20031;-82
2021/07/09 02:30:36;;;;;;;12.88;6.85;;;;;;;21.69;63.35;95476.44;4978467;28;20038;-81
2021/07/09 02:33:03;;;;;;;15.00;6.65;;;;;;;21.70;63.16;95478.78;4995112;28;20121;-83
2021/07/09 02:35:30;;;;;;;16.25;6.55;;;;;;;21.71;62.89;95477.72;4979305;28;20088;-82
2021/07/09 02:37:55;;;;;;;9.93;6.85;;;;;;;21.67;62.94;95478.59;4996434;28;20037;-82
2021/07/09 02:40:23;;;;;;;11.48;6.72;;;;;;;21.63;63.64;95480.97;4978975;28;20030;-81
2021/07/09 02:42:50;;;;;;;9.50;6.35;;;;;;;21.60;63.97;95483.41;4977500;28;20042;-82
2021/07/09 02:45:16;;;;;;;9.00;5.68;;;;;;;21.61;64.33;95477.06;4994559;28;20502;-82
2021/07/09 02:47:42;;;;;;;16.02;5.80;;;;;;;21.61;64.15;95477.84;4994849;28;20038;-82
2021/07/09 02:50:09;;;;;;;7.45;6.22;;;;;;;21.63;64.32;95483.63;4978326;28;20117;-82
2021/07/09 02:52:35;;;;;;;11.15;6.30;;;;;;;21.48;64.78;95484.63;4995595;28;20098;-82
2021/07/09 02:55:10;;;;;;;6.47;5.55;;;;;;;21.41;65.20;95486.81;4952442;28;20058;-83
2021/07/09 02:57:36;;;;;;;6.72;5.97;;;;;;;21.36;65.58;95486.91;4995297;28;20037;-83
2021/07/09 03:00:04;;;;;;;17.55;9.93;;;;;;;21.36;65.60;95488.75;4978778;28;20117;-82
2021/07/09 03:02:29;;;;;;;8.68;7.22;;;;;;;21.32;65.81;95491.19;4963646;23;20035;-82
2021/07/09 03:04:54;;;;;;;8.93;6.47;;;;;;;21.36;65.48;95481.59;4943239;28;20141;-82
2021/07/09 03:07:20;;;;;;;12.85;7.05;;;;;;;21.36;65.71;95484.25;4925850;29;20027;-82
2021/07/09 03:09:45;;;;;;;6.88;5.88;;;;;;;21.39;65.46;95482.91;4929584;29;20038;-82
2021/07/09 03:12:11;;;;;;;10.73;6.78;;;;;;;21.37;65.77;95490.34;4911200;29;20503;-82
2021/07/09 03:14:36;;;;;;;7.43;6.30;;;;;;;21.44;65.42;95491.53;4913502;29;20043;-82
2021/07/09 03:17:02;;;;;;;9.57;6.70;;;;;;;21.54;65.17;95491.44;4947058;29;20026;-82
2021/07/09 03:19:30;;;;;;;15.80;6.15;;;;;;;21.58;64.26;95487.13;4930257;29;20039;-81
2021/07/09 03:21:56;;;;;;;10.15;6.32;;;;;;;21.58;64.16;95484.50;4946016;28;20044;-81
2021/07/09 03:24:21;;;;;;;23.95;7.82;;;;;;;21.60;64.11;95494.00;4946366;29;20035;-81
2021/07/09 03:26:47;;;;;;;18.38;7.53;;;;;;;21.61;63.60;95492.94;4943571;29;20028;-82
2021/07/09 03:29:12;;;;;;;26.75;8.63;;;;;;;21.64;63.67;95487.06;4945964;29;20511;-82
2021/07/09 03:31:37;;;;;;;18.05;8.50;;;;;;;21.64;63.46;95490.53;4945883;29;20221;-82
2021/07/09 03:34:03;;;;;;;33.58;8.55;;;;;;;21.65;63.46;95486.03;4927053;29;20590;-82
2021/07/09 03:36:29;;;;;;;23.02;8.63;;;;;;;21.68;63.46;95490.75;4911088;29;20062;-83
2021/07/09 03:38:55;;;;;;;26.13;7.65;;;;;;;21.71;63.59;95485.66;4947917;29;20432;-82
2021/07/09 03:41:20;;;;;;;21.45;6.95;;;;;;;21.79;64.06;95492.16;4945651;28;20102;-83
2021/07/09 03:43:46;;;;;;;22.83;8.32;;;;;;;21.87;63.02;95483.59;4947006;29;20031;-83
2021/07/09 03:46:11;;;;;;;10.73;6.65;;;;;;;21.92;63.72;95491.44;4947839;29;20510;-82
2021/07/09 03:48:37;;;;;;;15.45;6.35;;;;;;;21.94;63.63;95488.50;4897104;29;20047;-82
2021/07/09 03:51:03;;;;;;;7.32;6.63;;;;;;;21.79;64.43;95492.16;4927682;29;20463;-82
2021/07/09 03:53:28;;;;;;;13.05;6.63;;;;;;;21.86;64.42;95484.66;4928301;29;20112;-81
2021/07/09 03:55:54;;;;;;;8.65;6.72;;;;;;;21.86;64.31;95479.38;4947337;29;20031;-81
2021/07/09 03:58:19;;;;;;;9.93;6.38;;;;;;;21.98;64.35;95484.25;4930154;29;20027;-81
2021/07/09 04:00:45;;;;;;;7.25;6.10;;;;;;;21.99;63.94;95491.91;4926907;28;20035;-81
2021/07/09 04:05:39;;;;;;;6.90;5.82;;;;;;;21.96;64.16;95478.41;4976708;23;20486;-82
2021/07/09 04:08:05;;;;;;;13.73;6.20;;;;;;;22.39;62.80;95476.47;4956094;29;20032;-82
2021/07/09 04:10:31;;;;;;;8.65;5.75;;;;;;;24.22;56.87;95492.28;4922252;28;20035;-82
2021/07/09 04:12:56;;;;;;;16.83;5.63;;;;;;;26.11;51.07;95480.13;4921872;29;20039;-82
2021/07/09 04:15:21;;;;;;;8.95;4.85;;;;;;;27.71;46.87;95486.75;4955116;29;20502;-84
2021/07/09 04:17:47;;;;;;;5.15;4.65;;;;;;;29.40;42.65;95473.53;4954440;28;20035;-83
2021/07/09 04:20:19;;;;;;;6.43;4.80;;;;;;;30.66;39.79;95478.75;4938138;29;20055;-81
2021/07/09 04:22:44;;;;;;;4.72;3.78;;;;;;;31.64;37.77;95478.88;4938225;29;20031;-82
2021/07/09 04:25:10;;;;;;;6.47;4.43;;;;;;;32.81;34.85;95478.59;4923488;29;20246;-82
2021/07/09 04:27:36;;;;;;;5.97;4.03;;;;;;;33.71;32.99;95478.16;4955026;29;20046;-83
2021/07/09 04:30:02;;;;;;;9.00;4.28;;;;;;;34.23;32.22;95468.44;4936693;29;20503;-82
2021/07/09 04:32:28;;;;;;;5.78;3.88;;;;;;;35.00;30.96;95475.09;4955613;28;20039;-83
2021/07/09 04:34:53;;;;;;;7.60;4.53;;;;;;;35.63;29.57;95461.31;4948145;29;20047;-83
2021/07/09 04:37:19;;;;;;;5.90;3.60;;;;;;;36.12;28.48;95470.09;4977637;28;20144;-83
2021/07/09 04:39:44;;;;;;;5.35;3.40;;;;;;;37.03;27.84;95465.38;4950373;29;20039;-83
2021/07/09 04:42:11;;;;;;;12.88;3.58;;;;;;;38.09;25.63;95465.28;4956657;28;20567;-83
2021/07/09 04:44:37;;;;;;;4.28;3.20;;;;;;;39.02;24.52;95470.25;4955093;29;20486;-83
2021/07/09 04:47:03;;;;;;;9.82;3.28;;;;;;;39.31;23.74;95471.63;4956102;28;20095;-84
2021/07/09 04:49:28;;;;;;;9.98;3.30;;;;;;;39.52;23.81;95475.31;4955869;29;20124;-81
2021/07/09 04:51:54;;;;;;;3.95;2.90;;;;;;;40.44;22.40;95468.94;4940395;29;20035;-81
2021/07/09 04:54:20;;;;;;;6.35;3.22;;;;;;;41.32;21.20;95473.56;4939391;29;20031;-82
2021/07/09 04:56:45;;;;;;;5.55;2.92;;;;;;;41.93;20.82;95476.03;4923930;29;20550;-82
2021/07/09 04:59:11;;;;;;;4.93;3.47;;;;;;;42.45;20.43;95476.16;4940288;29;20035;-82
2021/07/09 05:01:36;;;;;;;4.18;2.72;;;;;;;43.08;19.65;95456.06;4957200;28;20515;-82
2021/07/09 05:04:02;;;;;;;5.00;3.35;;;;;;;43.33;19.27;95459.00;4939665;29;20032;-84
2021/07/09 05:06:27;;;;;;;9.63;3.47;;;;;;;43.67;18.58;95460.50;4956647;28;20355;-84
2021/07/09 05:08:56;;;;;;;4.47;3.13;;;;;;;44.30;18.29;95451.75;4938353;29;20034;-81
2021/07/09 05:11:21;;;;;;;6.40;3.25;;;;;;;44.82;17.76;95462.34;4954280;28;20054;-81
2021/07/09 05:13:46;;;;;;;8.68;3.35;;;;;;;45.07;17.42;95458.84;4923326;29;20023;-81
2021/07/09 05:16:12;;;;;;;4.03;2.70;;;;;;;45.48;16.98;95449.69;4922666;29;20035;-81
2021/07/09 05:18:38;;;;;;;10.48;3.00;;;;;;;45.34;17.12;95452.91;4956080;29;20039;-81
2021/07/09 05:21:03;;;;;;;6.07;3.00;;;;;;;44.83;17.43;95454.91;4923473;29;20042;-82
2021/07/09 05:23:29;;;;;;;3.67;2.60;;;;;;;45.17;16.87;95446.75;4922755;29;20027;-82
2021/07/09 05:25:54;;;;;;;14.65;3.40;;;;;;;45.36;17.07;95435.97;4926113;29;20035;-81
2021/07/09 05:28:20;;;;;;;7.63;3.47;;;;;;;45.18;16.72;95440.06;4939979;29;20515;-80
2021/07/09 05:30:46;;;;;;;13.90;2.85;;;;;;;44.70;17.49;95440.41;4951642;29;20043;-80
2021/07/09 05:33:14;;;;;;;5.43;3.30;;;;;;;43.88;18.28;95429.03;4969278;29;20046;-82
2021/07/09 05:35:41;;;;;;;5.00;2.97;;;;;;;45.20;16.86;95437.63;4945615;28;20083;-84
2021/07/09 05:38:07;;;;;;;10.15;3.35;;;;;;;45.90;16.19;95430.22;4926702;29;20035;-82
2021/07/09 05:43:01;;;;;;;6.50;3.15;;;;;;;46.91;15.54;95439.06;4947054;28;20135;-82
2021/07/09 05:45:27;;;;;;;8.30;3.13;;;;;;;47.19;15.09;95428.88;4949865;29;20430;-80
2021/07/09 05:47:53;;;;;;;7.35;3.30;;;;;;;46.82;15.16;95430.75;4924737;29;20411;-84
2021/07/09 05:50:18;;;;;;;8.35;3.05;;;;;;;46.86;15.33;95437.63;4958505;29;20074;-82
2021/07/09 05:52:43;;;;;;;5.50;3.17;;;;;;;46.31;15.53;95426.34;4956934;29;20322;-82
2021/07/09 05:55:46;;;;;;;15.60;3.25;;;;;;;46.21;15.95;95427.50;4956893;29;20038;-82
2021/07/09 05:58:12;;;;;;;3.15;2.55;;;;;;;46.92;15.56;95435.06;4952483;28;20089;-83
2021/07/09 06:00:39;;;;;;;9.10;3.25;;;;;;;46.92;15.27;95441.34;4957873;29;20035;-82
2021/07/09 06:03:05;;;;;;;5.55;3.03;;;;;;;46.90;15.37;95432.78;4957179;29;20031;-84
2021/07/09 06:05:30;;;;;;;5.45;3.25;;;;;;;47.20;15.00;95436.72;4957935;29;20122;-85
2021/07/09 06:07:56;;;;;;;7.40;3.30;;;;;;;46.65;15.77;95430.19;4957150;29;20491;-83
2021/07/09 06:10:21;;;;;;;9.27;3.65;;;;;;;45.92;15.84;95432.50;4931710;29;20036;-83
2021/07/09 06:12:47;;;;;;;7.78;3.10;;;;;;;45.68;16.31;95430.19;4940433;29;20031;-83
2021/07/09 06:15:12;;;;;;;13.73;3.00;;;;;;;46.37;15.86;95424.53;4957431;29;20505;-81
2021/07/09 06:17:38;;;;;;;8.75;3.38;;;;;;;46.72;15.71;95420.91;4938661;29;20031;-81
2021/07/09 06:20:05;;;;;;;6.53;3.47;;;;;;;47.49;15.05;95425.25;4938852;29;20310;-80
2021/07/09 06:22:31;;;;;;;7.50;3.40;;;;;;;47.79;14.66;95428.31;4939048;29;20530;-79
2021/07/09 06:24:56;;;;;;;3.40;2.92;;;;;;;48.07;14.28;95423.56;4939139;29;20119;-79
2021/07/09 06:27:22;;;;;;;13.20;4.05;;;;;;;48.67;14.20;95423.59;4937527;29;20117;-78
2021/07/09 06:29:47;;;;;;;11.13;3.05;;;;;;;48.67;14.00;95425.59;4953976;28;20404;-78
2021/07/09 06:32:13;;;;;;;7.32;3.63;;;;;;;49.10;13.55;95426.31;4956548;29;20124;-79
2021/07/09 06:34:38;;;;;;;9.15;3.33;;;;;;;49.67;12.77;95418.75;4915255;29;20059;-79
2021/07/09 06:37:04;;;;;;;5.47;3.38;;;;;;;49.42;13.37;95419.97;4955463;29;20260;-79
2021/07/09 06:39:32;;;;;;;5.13;3.75;;;;;;;49.97;13.25;95421.56;4956057;28;20086;-79
2021/07/09 06:41:58;;;;;;;6.10;3.97;;;;;;;49.63;13.11;95414.59;4923268;29;20058;-79
2021/07/09 06:44:26;;;;;;;16.48;3.80;;;;;;;49.81;13.46;95417.25;4938222;29;20544;-78
2021/07/09 06:46:54;;;;;;;7.93;4.40;;;;;;;49.88;12.92;95417.63;4939180;29;20039;-77
2021/07/09 06:49:23;;;;;;;7.65;4.20;;;;;;;49.66;13.61;95411.69;4955373;29;20447;-79
2021/07/09 06:51:48;;;;;;;6.72;3.50;;;;;;;49.73;13.36;95414.06;4922910;29;20047;-78
2021/07/09 06:54:14;;;;;;;11.52;3.80;;;;;;;49.96;12.96;95414.47;4923423;29;20038;-78
2021/07/09 06:56:39;;;;;;;8.35;4.82;;;;;;;49.44;12.96;95406.44;4954897;29;20503;-78
2021/07/09 06:59:04;;;;;;;12.40;4.30;;;;;;;49.00;13.56;95414.56;4937878;29;20513;-78
2021/07/09 07:01:30;;;;;;;12.10;4.47;;;;;;;48.33;14.11;95399.94;4955212;29;20039;-77
2021/07/09 07:03:56;;;;;;;7.10;3.72;;;;;;;47.33;14.66;95403.50;4938238;29;20028;-78
2021/07/09 07:06:21;;;;;;;9.93;4.38;;;;;;;46.99;15.18;95400.97;4938092;29;20035;-79
2021/07/09 07:08:46;;;;;;;6.28;4.32;;;;;;;46.16;16.29;95402.59;4937146;29;20039;-82
2021/07/09 07:11:12;;;;;;;8.05;4.45;;;;;;;45.13;16.81;95393.19;4953204;29;20407;-79
2021/07/09 07:13:37;;;;;;;14.05;4.55;;;;;;;44.03;18.12;95400.03;4955002;29;20039;-78
2021/07/09 07:16:05;;;;;;;5.45;4.88;;;;;;;43.19;18.87;95388.16;4934733;29;20054;-78
2021/07/09 07:18:30;;;;;;;5.75;3.17;;;;;;;41.90;19.29;95390.22;4937796;29;20114;-78
2021/07/09 07:20:56;;;;;;;7.57;4.25;;;;;;;40.06;21.83;95383.00;4936937;29;20035;-78
2021/07/09 07:23:21;;;;;;;7.95;4.68;;;;;;;39.65;22.30;95391.22;4937812;29;20027;-79
2021/07/09 07:25:47;;;;;;;12.68;5.28;;;;;;;39.60;22.70;95395.19;4918396;29;20041;-78
2021/07/09 07:28:16;;;;;;;6.00;5.15;;;;;;;39.48;22.75;95392.94;4953925;29;20090;-78
2021/07/09 07:30:41;;;;;;;7.20;4.82;;;;;;;38.89;22.95;95384.88;4955188;29;20043;-78
2021/07/09 07:33:07;;;;;;;11.15;4.47;;;;;;;37.90;24.66;95384.25;4955358;29;20035;-78
2021/07/09 07:35:32;;;;;;;12.27;5.97;;;;;;;36.24;26.96;95383.88;4955297;29;20035;-79
2021/07/09 07:37:58;;;;;;;12.07;5.50;;;;;;;35.63;28.09;95377.44;4922595;29;20086;-80
2021/07/09 07:40:23;;;;;;;13.88;5.43;;;;;;;35.27;28.38;95381.06;4955695;29;20471;-80
2021/07/09 07:42:51;;;;;;;6.53;5.72;;;;;;;35.54;28.23;95379.72;4953727;29;20031;-80
2021/07/09 07:45:17;;;;;;;6.38;5.50;;;;;;;35.50;28.43;95381.63;4935096;29;20039;-80
2021/07/09 07:47:42;;;;;;;8.90;5.38;;;;;;;35.19;28.05;95375.63;4936048;29;20035;-80
2021/07/09 07:50:09;;;;;;;8.38;5.38;;;;;;;35.23;28.19;95366.75;4954656;29;20035;-80
2021/07/09 07:52:35;;;;;;;14.27;6.10;;;;;;;35.18;28.47;95381.41;4937324;29;20042;-81
2021/07/09 07:55:00;;;;;;;10.25;6.40;;;;;;;34.93;28.99;95365.00;4922807;29;20039;-80
2021/07/09 07:57:26;;;;;;;9.95;5.20;;;;;;;34.84;27.80;95369.94;4921077;29;20476;-79
2021/07/09 07:59:51;;;;;;;8.75;4.90;;;;;;;34.62;28.84;95371.66;4936500;29;20050;-80
2021/07/09 08:02:17;;;;;;;6.82;5.05;;;;;;;34.52;28.00;95370.44;4920911;29;20067;-80
2021/07/09 08:04:44;;;;;;;8.68;5.47;;;;;;;33.76;30.12;95369.16;4955295;29;20126;-80
2021/07/09 08:07:10;;;;;;;8.77;5.80;;;;;;;33.78;30.06;95367.63;4921111;29;20035;-80
2021/07/09 08:09:35;;;;;;;14.38;4.38;;;;;;;33.75;28.54;95359.50;4938328;29;20066;-80
2021/07/09 08:12:01;;;;;;;10.88;4.78;;;;;;;33.14;29.46;95380.22;4955542;29;20078;-80
2021/07/09 08:14:27;;;;;;;5.13;3.90;;;;;;;32.86;28.66;95363.59;4927971;29;20027;-79
2021/07/09 08:16:52;;;;;;;8.85;4.78;;;;;;;32.68;30.64;95364.06;4972674;29;20103;-80
2021/07/09 08:19:21;;;;;;;4.85;4.45;;;;;;;32.99;29.82;95356.88;4973189;29;20045;-80
2021/07/09 08:21:46;;;;;;;9.93;4.65;;;;;;;33.07;29.83;95358.56;4939062;29;20046;-80
2021/07/09 08:24:13;;;;;;;5.82;3.50;;;;;;;32.95;27.83;95361.44;4936628;29;20019;-80
2021/07/09 08:26:39;;;;;;;10.52;4.07;;;;;;;32.99;28.14;95360.34;4922830;29;20065;-79
2021/07/09 08:29:04;;;;;;;6.03;4.22;;;;;;;32.97;28.84;95351.88;4941403;29;20058;-79
2021/07/09 08:31:30;;;;;;;7.38;5.10;;;;;;;32.61;30.03;95357.81;4955611;29;20035;-80
2021/07/09 08:33:55;;;;;;;13.60;5.10;;;;;;;32.45;29.85;95361.38;4954381;29;20404;-80
2021/07/09 08:36:23;;;;;;;8.10;3.65;;;;;;;32.34;28.72;95346.19;4920620;29;20038;-80
2021/07/09 08:38:58;;;;;;;9.98;3.72;;;;;;;32.59;29.07;95327.78;4935968;29;20038;-80
2021/07/09 08:41:23;;;;;;;8.32;4.57;;;;;;;32.29;30.73;95335.72;4936466;29;20031;-80
2021/07/09 08:43:52;;;;;;;5.47;4.35;;;;;;;32.14;30.26;95364.25;4953353;29;20031;-79
2021/07/09 08:46:17;;;;;;;3.00;2.80;;;;;;;31.91;28.30;95342.69;4953592;29;20027;-78
2021/07/09 08:48:43;;;;;;;5.13;4.28;;;;;;;31.64;30.75;95350.59;4952339;29;20057;-79
2021/07/09 08:51:09;;;;;;;5.80;4.35;;;;;;;31.62;30.61;95352.84;4953514;29;20054;-79
2021/07/09 08:53:34;;;;;;;6.72;4.05;;;;;;;31.54;29.77;95339.59;4954264;29;20066;-80
2021/07/09 08:56:00;;;;;;;6.55;4.43;;;;;;;31.33;30.82;95334.56;4937419;29;20062;-80
2021/07/09 08:58:25;;;;;;;5.03;4.40;;;;;;;31.36;30.91;95333.84;4936700;29;20039;-80
2021/07/09 09:00:51;;;;;;;6.35;4.32;;;;;;;31.53;30.83;95341.50;4937006;29;20027;-80
2021/07/09 09:03:23;;;;;;;8.68;4.10;;;;;;;31.58;31.10;95330.50;4937311;29;20522;-80
2021/07/09 09:05:48;;;;;;;;;;;;;;;31.50;31.51;95328.00;4921869;29;20133;-79
2021/07/09 09:08:16;;;;;;;13.52;4.85;;;;;;;31.62;31.66;95330.56;4954755;29;20070;-80
2021/07/09 09:10:46;;;;;;;5.40;4.85;;;;;;;31.65;31.23;95330.63;4923932;29;20353;-78
2021/07/09 09:13:16;;;;;;;5.45;4.65;;;;;;;31.64;31.27;95323.69;4943613;29;20046;-77
2021/07/09 09:15:45;;;;;;;8.38;5.30;;;;;;;31.54;31.66;95323.47;4928296;29;20034;-78
2021/07/09 09:18:20;;;;;;;4.43;4.03;;;;;;;31.62;29.97;95320.59;4958544;29;20031;-78
2021/07/09 09:20:54;;;;;;;10.45;4.45;;;;;;;31.66;30.41;95320.66;4938102;29;20046;-80
2021/07/09 09:23:19;;;;;;;5.82;4.28;;;;;;;31.46;31.29;95317.19;4934295;29;20086;-79
2021/07/09 09:25:45;;;;;;;8.15;4.45;;;;;;;31.48;31.10;95325.66;4928552;29;20039;-79
2021/07/09 09:28:11;;;;;;;5.50;3.90;;;;;;;31.48;30.69;95319.50;4960860;29;20038;-80
2021/07/09 09:30:37;;;;;;;6.90;3.40;;;;;;;31.22;29.77;95309.38;4923810;29;20066;-86
2021/07/09 09:33:05;;;;;;;5.22;4.05;;;;;;;31.16;30.54;95311.53;4937261;29;20121;-81
2021/07/09 09:35:32;;;;;;;9.70;4.63;;;;;;;30.56;32.21;95315.47;4935704;29;20065;-80
2021/07/09 09:37:59;;;;;;;4.55;4.15;;;;;;;30.38;32.91;95299.72;4952355;29;20046;-78
2021/07/09 09:40:25;;;;;;;5.68;4.10;;;;;;;30.44;32.70;95316.34;4955056;29;20035;-80
2021/07/09 09:42:51;;;;;;;5.80;4.40;;;;;;;30.23;33.50;95303.16;4936627;29;20201;-81
2021/07/09 09:45:22;;;;;;;8.13;5.05;;;;;;;30.06;33.90;95295.47;4936127;29;20039;-81
2021/07/09 09:47:47;;;;;;;7.07;4.40;;;;;;;30.26;33.23;95291.75;4933423;29;20130;-81
2021/07/09 09:50:17;;;;;;;17.52;5.70;;;;;;;30.32;33.92;95306.47;4951257;29;20039;-81
2021/07/09 09:52:44;;;;;;;16.55;5.07;;;;;;;30.38;34.26;95297.03;4952096;29;20460;-80
2021/07/09 09:55:12;;;;;;;6.53;4.80;;;;;;;30.53;34.27;95308.13;4952830;29;20039;-81
2021/07/09 09:57:38;;;;;;;6.72;4.65;;;;;;;30.34;33.69;95290.81;4952630;29;20039;-80
2021/07/09 10:00:10;;;;;;;7.10;4.18;;;;;;;30.26;33.90;95291.75;4935160;29;20392;-82
2021/07/09 10:02:36;;;;;;;7.50;4.00;;;;;;;30.38;33.80;95286.31;4935174;29;20039;-80
2021/07/09 10:05:05;;;;;;;4.85;4.45;;;;;;;30.43;34.25;95294.13;4935704;29;20031;-80
2021/07/09 10:07:35;;;;;;;6.95;4.10;;;;;;;30.33;33.37;95299.22;4932988;29;20042;-81
2021/07/09 10:10:01;;;;;;;4.00;3.70;;;;;;;30.20;34.08;95284.31;4919193;29;20035;-80
2021/07/09 10:12:27;;;;;;;4.45;4.03;;;;;;;30.34;33.63;95293.50;4920036;29;20039;-80
2021/07/09 10:14:52;;;;;;;9.48;4.25;;;;;;;30.04;34.54;95276.22;4904882;29;20079;-80
2021/07/09 10:17:18;;;;;;;8.88;4.47;;;;;;;29.79;34.89;95281.72;4922062;29;20055;-80
2021/07/09 10:19:45;;;;;;;9.15;4.45;;;;;;;29.78;34.85;95276.72;4923710;29;20079;-80
2021/07/09 10:22:11;;;;;;;4.70;4.30;;;;;;;29.68;34.42;95280.66;4938213;29;20150;-80
2021/07/09 10:24:43;;;;;;;5.10;3.55;;;;;;;29.71;34.53;95277.28;4939183;29;20035;-80
2021/07/09 10:27:09;;;;;;;5.65;4.30;;;;;;;29.81;33.69;95265.28;4923698;29;20035;-80
2021/07/09 10:29:35;;;;;;;7.18;4.78;;;;;;;29.63;34.91;95264.06;4939658;29;20066;-79
2021/07/09 10:32:04;;;;;;;6.55;5.00;;;;;;;29.73;35.65;95271.56;4940348;29;20039;-80
2021/07/09 10:34:41;;;;;;;5.70;5.20;;;;;;;29.75;35.70;95250.56;5200923;23;20051;-79
2021/07/09 10:37:29;;;;;;;13.20;6.47;;;;;;;29.94;35.22;95272.16;4928746;29;20062;-78
2021/07/09 10:40:07;;;;;;;7.07;4.88;;;;;;;29.84;34.61;95256.56;4926852;29;20138;-79
2021/07/09 10:42:40;;;;;;;9.38;4.78;;;;;;;29.87;34.55;95245.91;4926608;29;20460;-79
2021/07/09 10:45:24;;;;;;;7.50;4.80;;;;;;;29.75;35.27;95243.31;4926367;29;20036;-77
2021/07/09 10:48:18;;;;;;;7.93;5.30;;;;;;;29.49;36.17;95245.69;4927609;29;20075;-79
2021/07/09 10:50:46;;;;;;;5.05;4.43;;;;;;;29.70;35.09;95227.47;4924900;29;20114;-79
2021/07/09 10:53:13;;;;;;;5.65;5.07;;;;;;;29.81;35.57;95233.91;4928945;29;20047;-79
2021/07/09 10:55:41;;;;;;;5.57;5.10;;;;;;;29.85;35.24;95226.72;4925009;29;20039;-79
2021/07/09 10:58:08;;;;;;;7.35;4.85;;;;;;;29.96;34.77;95231.59;4924657;29;20047;-81
2021/07/09 11:00:48;;;;;;;10.27;4.35;;;;;;;29.91;34.77;95226.47;4926959;29;20471;-83
2021/07/09 11:03:35;;;;;;;3.78;3.47;;;;;;;29.54;35.59;95238.16;4921020;29;20074;-79
2021/07/09 11:06:01;;;;;;;4.57;3.58;;;;;;;29.25;35.15;95236.56;5088636;23;20503;-79
2021/07/09 11:08:35;;;;;;;4.70;3.35;;;;;;;29.39;35.52;95220.13;4964408;28;20039;-79
2021/07/09 11:11:38;;;;;;;6.15;3.67;;;;;;;29.57;35.27;95225.97;4965459;28;20410;-79
2021/07/09 11:14:11;;;;;;;4.07;3.42;;;;;;;29.61;34.85;95216.13;4965456;28;20118;-78
2021/07/09 11:16:38;;;;;;;5.40;3.40;;;;;;;29.59;34.46;95218.38;4962890;28;20471;-78
2021/07/09 11:19:10;;;;;;;6.88;3.40;;;;;;;29.76;34.36;95215.38;4962203;28;20503;-78
2021/07/09 11:21:35;;;;;;;13.00;3.72;;;;;;;29.84;35.03;95222.50;4962722;28;20023;-79
2021/07/09 11:24:05;;;;;;;6.35;3.60;;;;;;;29.54;35.99;95223.97;4989553;23;20117;-78
2021/07/09 11:26:34;;;;;;;5.70;3.60;;;;;;;29.44;35.96;95211.03;5052496;23;20548;-79
2021/07/09 11:29:00;;;;;;;3.40;3.10;;;;;;;29.29;35.94;95205.31;4999408;28;20038;-83
2021/07/09 11:31:42;;;;;;;5.32;3.10;;;;;;;29.31;35.73;95212.25;4980268;28;20035;-82
2021/07/09 11:34:11;;;;;;;3.65;3.40;;;;;;;29.24;35.36;95208.22;4987987;28;20105;-83
2021/07/09 11:36:44;;;;;;;8.20;2.92;;;;;;;29.25;35.26;95201.75;4963375;28;20042;-83
2021/07/09 11:39:13;;;;;;;2.60;2.33;;;;;;;29.34;35.07;95216.91;4992270;28;20442;-83
2021/07/09 11:41:58;;;;;;;5.47;2.85;;;;;;;29.28;34.12;95193.03;4977755;28;20034;-83